createdAt,value
2019-02-14T00:04:56.568Z,113.00
2019-02-14T00:09:58.328Z,102.63
2019-02-14T00:15:00.221Z,125.83
2019-02-14T00:20:02.551Z,120.90
2019-02-14T00:25:05.493Z,91.67
2019-02-14T00:30:08.756Z,120.37
2019-02-14T00:35:10.538Z,113.67
2019-02-14T00:40:12.327Z,116.07
2019-02-14T00:45:14.449Z,132.73
2019-02-14T00:50:16.243Z,125.77
2019-02-14T00:55:18.045Z,143.17
2019-02-14T01:00:20.264Z,139.63
2019-02-14T01:05:21.960Z,124.50
2019-02-14T01:10:23.662Z,112.47
2019-02-14T01:15:26.897Z,126.47
2019-02-14T01:20:28.603Z,116.63
2019-02-14T01:25:30.404Z,131.17
2019-02-14T01:30:32.515Z,121.73
2019-02-14T01:35:41.829Z,108.93
2019-02-14T01:40:37.919Z,106.77
2019-02-14T01:45:39.663Z,101.83
2019-02-14T01:50:41.567Z,106.93
2019-02-14T01:55:43.782Z,109.23
2019-02-14T02:00:46.410Z,130.70
2019-02-14T02:05:50.817Z,118.90
2019-02-14T02:10:51.789Z,131.07
2019-02-14T02:15:53.793Z,136.27
2019-02-14T02:20:56.281Z,144.37
2019-02-14T02:25:58.403Z,137.87
2019-02-14T02:31:00.087Z,156.97
2019-02-14T02:36:01.787Z,150.83
2019-02-14T02:41:03.483Z,145.90
2019-02-14T02:46:05.182Z,166.30
2019-02-14T02:51:08.445Z,147.60
2019-02-14T02:56:10.528Z,184.87
2019-02-14T03:01:12.738Z,178.67
2019-02-14T03:06:14.747Z,193.17
2019-02-14T03:11:16.460Z,171.20
2019-02-14T03:16:18.140Z,173.80
2019-02-14T03:21:19.942Z,181.80
2019-02-14T03:26:21.639Z,194.80
2019-02-14T03:31:23.893Z,189.77
2019-02-14T03:36:26.055Z,188.97
2019-02-14T03:41:28.459Z,221.00
2019-02-14T03:46:30.154Z,227.07
2019-02-14T03:51:32.591Z,275.67
2019-02-14T03:56:34.656Z,254.63
2019-02-14T04:01:36.791Z,263.53
2019-02-14T04:06:38.666Z,246.37
2019-02-14T04:11:40.475Z,253.30
2019-02-14T04:16:42.275Z,250.23
2019-02-14T04:21:44.316Z,344.10
2019-02-14T04:26:46.480Z,259.07
2019-02-14T04:31:48.273Z,212.40
2019-02-14T04:36:50.468Z,310.57
2019-02-14T04:41:52.271Z,283.83
2019-02-14T04:46:54.078Z,292.80
2019-02-14T04:51:56.391Z,300.17
2019-02-14T04:56:58.090Z,314.77
2019-02-14T05:02:00.222Z,338.17
2019-02-14T05:07:02.089Z,336.13
2019-02-14T05:12:06.035Z,314.87
2019-02-14T05:17:07.703Z,309.83
2019-02-14T05:22:09.526Z,344.70
2019-02-14T05:27:11.327Z,307.13
2019-02-14T05:32:13.108Z,253.97
2019-02-14T05:37:14.913Z,354.73
2019-02-14T05:42:17.358Z,280.23
2019-02-14T05:47:19.141Z,297.00
2019-02-14T05:52:20.933Z,330.00
2019-02-14T05:57:22.721Z,325.57
2019-02-14T06:02:24.490Z,315.67
2019-02-14T06:07:26.656Z,254.90
2019-02-14T06:12:29.353Z,180.80
2019-02-14T06:17:30.996Z,236.70
2019-02-14T06:22:32.707Z,325.93
2019-02-14T06:27:34.357Z,317.80
2019-02-14T06:32:36.040Z,193.33
2019-02-14T06:37:37.736Z,176.93
2019-02-14T06:42:39.948Z,244.30
2019-02-14T06:47:41.749Z,300.97
2019-02-14T06:52:43.653Z,304.57
2019-02-14T06:57:45.749Z,281.37
2019-02-14T07:02:47.551Z,297.97
2019-02-14T07:07:49.194Z,244.93
2019-02-14T07:12:51.944Z,203.50
2019-02-14T07:17:53.730Z,272.60
2019-02-14T07:22:55.522Z,269.57
2019-02-14T07:27:57.195Z,267.57
2019-02-14T07:32:58.869Z,194.20
2019-02-14T07:38:00.555Z,254.57
2019-02-14T07:43:03.163Z,280.90
2019-02-14T07:48:04.875Z,323.47
2019-02-14T07:53:06.856Z,222.50
2019-02-14T07:58:08.504Z,257.93
2019-02-14T08:03:10.226Z,261.53
2019-02-14T08:08:11.952Z,244.80
2019-02-14T08:13:14.101Z,234.77
2019-02-14T08:18:16.132Z,221.47
2019-02-14T08:23:17.951Z,231.77
2019-02-14T08:28:19.727Z,142.17
2019-02-14T08:33:21.467Z,282.50
2019-02-14T08:38:23.277Z,229.97
2019-02-14T08:43:25.486Z,265.33
2019-02-14T08:48:27.698Z,195.93
2019-02-14T08:53:29.828Z,231.53
2019-02-14T08:58:31.593Z,255.60
2019-02-14T09:03:33.385Z,213.43
2019-02-14T09:08:35.049Z,167.40
2019-02-14T09:13:37.161Z,152.60
2019-02-14T09:18:38.851Z,201.83
2019-02-14T09:23:40.603Z,169.27
2019-02-14T09:28:42.690Z,148.63
2019-02-14T09:33:44.950Z,164.80
2019-02-14T09:38:46.732Z,166.10
2019-02-14T09:43:48.875Z,149.07
2019-02-14T09:48:50.627Z,171.50
2019-02-14T09:53:52.634Z,179.77
2019-02-14T09:58:54.447Z,122.17
2019-02-14T10:03:56.121Z,166.67
2019-02-14T10:08:57.838Z,115.67
2019-02-14T10:14:00.439Z,160.13
2019-02-14T10:19:02.142Z,134.70
2019-02-14T10:24:03.826Z,171.20
2019-02-14T10:29:05.498Z,173.40
2019-02-14T10:34:07.231Z,194.80
2019-02-14T10:39:09.344Z,150.53
2019-02-14T10:44:11.515Z,170.37
2019-02-14T10:49:13.168Z,152.00
2019-02-14T10:54:14.968Z,162.23
2019-02-14T10:59:16.662Z,181.80
2019-02-14T11:04:18.458Z,152.03
2019-02-14T11:09:20.263Z,122.67
2019-02-14T11:14:28.987Z,171.83
2019-02-14T11:19:26.631Z,160.63
2019-02-14T11:24:28.325Z,157.57
2019-02-14T11:29:30.129Z,145.57
2019-02-14T11:34:31.925Z,128.53
2019-02-14T11:39:33.727Z,153.47
2019-02-14T11:44:39.855Z,143.77
2019-02-14T11:49:39.891Z,142.83
2019-02-14T11:54:41.567Z,141.47
2019-02-14T11:59:43.237Z,135.80
2019-02-14T12:04:45.086Z,147.83
2019-02-14T12:09:46.890Z,146.27
2019-02-14T12:14:49.200Z,127.27
2019-02-14T12:19:50.950Z,124.87
2019-02-14T12:24:53.117Z,144.07
2019-02-14T12:29:54.875Z,138.37
2019-02-14T12:34:56.722Z,137.03
2019-02-14T12:39:58.485Z,136.47
2019-02-14T12:45:00.623Z,146.07
2019-02-14T12:50:02.871Z,145.53
2019-02-14T12:55:05.559Z,144.47
2019-02-14T13:00:13.954Z,138.70
2019-02-14T13:05:15.680Z,139.27
2019-02-14T13:10:18.068Z,130.50
2019-02-14T13:15:24.931Z,146.93
2019-02-14T13:20:27.048Z,112.53
2019-02-14T13:25:29.232Z,133.77
2019-02-14T13:30:30.973Z,114.13
2019-02-14T13:35:32.748Z,143.07
2019-02-14T13:40:34.609Z,141.17
2019-02-14T13:45:36.369Z,148.70
2019-02-14T13:50:38.523Z,141.83
2019-02-14T13:55:44.923Z,130.70
2019-02-14T14:00:46.620Z,139.03
2019-02-14T14:05:48.401Z,148.23
2019-02-14T14:10:54.389Z,148.87
2019-02-14T14:15:56.166Z,151.20
2019-02-14T14:20:58.306Z,158.03
2019-02-14T14:25:59.991Z,155.67
2019-02-14T14:31:01.831Z,156.83
2019-02-14T14:36:07.152Z,159.43
2019-02-14T14:41:24.478Z,149.20
2019-02-14T14:46:27.956Z,157.63
2019-02-14T14:51:30.374Z,162.43
2019-02-14T14:56:34.629Z,170.00
2019-02-14T15:01:37.109Z,162.63
2019-02-14T15:06:38.949Z,187.23
2019-02-14T15:11:42.499Z,172.50
2019-02-14T15:16:44.300Z,128.60
2019-02-14T15:21:48.615Z,180.30
2019-02-14T15:26:50.470Z,162.17
2019-02-14T15:31:52.551Z,161.87
2019-02-14T15:36:54.757Z,180.83
2019-02-14T15:41:56.551Z,177.37
2019-02-14T15:46:58.324Z,164.80
2019-02-14T15:52:00.649Z,175.93
2019-02-14T15:57:05.176Z,160.07
2019-02-14T16:02:08.446Z,165.27
2019-02-14T16:07:11.034Z,200.60
2019-02-14T16:12:12.969Z,201.67
2019-02-14T16:17:14.644Z,191.10
2019-02-14T16:22:17.750Z,173.33
2019-02-14T16:27:19.878Z,183.20
2019-02-14T16:32:21.551Z,162.73
2019-02-14T16:37:23.771Z,184.47
2019-02-14T16:42:25.470Z,160.40
2019-02-14T16:47:27.159Z,179.43
2019-02-14T16:52:29.462Z,182.57
2019-02-14T16:57:31.104Z,145.73
2019-02-14T17:02:33.057Z,170.83
2019-02-14T17:07:37.005Z,188.97
2019-02-14T17:12:38.710Z,201.17
2019-02-14T17:17:40.519Z,184.10
2019-02-14T17:22:42.936Z,187.67
2019-02-14T17:27:44.664Z,194.47
2019-02-14T17:32:46.732Z,181.27
2019-02-14T17:37:48.673Z,208.67
2019-02-14T17:42:52.460Z,176.30
2019-02-14T17:47:54.178Z,162.73
2019-02-14T17:52:56.992Z,199.17
2019-02-14T17:58:01.027Z,190.87
2019-02-14T18:03:03.287Z,174.60
2019-02-14T18:08:05.136Z,186.37
2019-02-14T18:13:07.262Z,165.83
2019-02-14T18:18:08.988Z,171.73
2019-02-14T18:23:10.647Z,186.73
2019-02-14T18:28:13.280Z,193.33
2019-02-14T18:33:14.938Z,195.33
2019-02-14T18:38:16.675Z,209.50
2019-02-14T18:43:18.321Z,179.73
2019-02-14T18:48:20.890Z,188.70
2019-02-14T18:53:23.096Z,222.37
2019-02-14T18:58:26.700Z,241.03
2019-02-14T19:03:28.708Z,245.30
2019-02-14T19:08:30.973Z,243.27
2019-02-14T19:13:32.876Z,200.97
2019-02-14T19:18:35.690Z,192.27
2019-02-14T19:23:39.356Z,234.63
2019-02-14T19:28:43.326Z,215.73
2019-02-14T19:33:45.406Z,247.00
2019-02-14T19:38:47.323Z,252.60
2019-02-14T19:43:49.111Z,230.20
2019-02-14T19:48:50.886Z,251.77
2019-02-14T19:53:52.687Z,218.77
2019-02-14T19:58:56.359Z,279.47
2019-02-14T20:03:58.800Z,220.87
2019-02-14T20:09:01.197Z,238.90
2019-02-14T20:14:03.770Z,260.60
2019-02-14T20:19:05.892Z,227.27
2019-02-14T20:24:08.067Z,217.70
2019-02-14T20:29:15.242Z,218.17
2019-02-14T20:34:17.831Z,252.10
2019-02-14T20:39:19.483Z,244.23
2019-02-14T20:44:21.257Z,214.60
2019-02-14T20:49:23.026Z,255.57
2019-02-14T20:54:25.068Z,172.97
2019-02-14T20:59:27.568Z,299.53
2019-02-14T21:04:29.287Z,189.97
2019-02-14T21:09:32.092Z,272.50
2019-02-14T21:14:33.874Z,280.10
2019-02-14T21:19:35.562Z,128.97
2019-02-14T21:24:38.099Z,263.87
2019-02-14T21:29:40.241Z,256.90
2019-02-14T21:34:42.029Z,230.40
2019-02-14T21:39:43.784Z,273.83
2019-02-14T21:44:45.599Z,263.80
2019-02-14T21:49:47.452Z,288.53
2019-02-14T21:54:49.289Z,270.57
2019-02-14T21:59:51.696Z,313.30
2019-02-14T22:04:53.494Z,319.53
2019-02-14T22:09:55.325Z,256.23
2019-02-14T22:14:57.158Z,256.27
2019-02-14T22:19:59.191Z,234.37
2019-02-14T22:25:01.392Z,250.93
2019-02-14T22:30:09.607Z,211.80
2019-02-14T22:35:11.348Z,233.83
2019-02-14T22:40:15.539Z,253.80
2019-02-14T22:45:18.120Z,294.40
2019-02-14T22:50:19.793Z,297.07
2019-02-14T22:55:21.442Z,241.90
2019-02-14T23:00:47.668Z,296.57
2019-02-14T23:05:50.238Z,296.60
2019-02-14T23:10:52.005Z,252.83
2019-02-14T23:15:53.846Z,399.87
2019-02-14T23:20:55.669Z,340.03
2019-02-14T23:25:57.728Z,161.60
2019-02-14T23:30:59.585Z,246.40
2019-02-14T23:36:03.730Z,356.10
2019-02-14T23:41:05.588Z,470.10
2019-02-14T23:46:07.406Z,431.27
2019-02-14T23:51:09.172Z,138.03
2019-02-14T23:56:11.027Z,368.10
